sensor_id;sensor_type;location;lat;lon;timestamp;P1;durP1;ratioP1;P2;durP2;ratioP2
39950;SDS011;25629;51.444;-2.606;2022-10-31T00:00:29;25.65;;;2.38;;
39950;SDS011;25629;51.444;-2.606;2022-10-31T00:02:55;22.77;;;3.03;;
39950;SDS011;25629;51.444;-2.606;2022-10-31T00:05:21;14.95;;;2.35;;
39950;SDS011;25629;51.444;-2.606;2022-10-31T00:07:46;21.83;;;2.72;;
39950;SDS011;25629;51.444;-2.606;2022-10-31T00:10:12;20.95;;;4.13;;
39950;SDS011;25629;51.444;-2.606;2022-10-31T00:12:37;19.55;;;2.85;;
39950;SDS011;25629;51.444;-2.606;2022-10-31T00:15:03;23.58;;;2.67;;
39950;SDS011;25629;51.444;-2.606;2022-10-31T00:19:55;11.52;;;1.45;;
39950;SDS011;25629;51.444;-2.606;2022-10-31T00:22:21;20.17;;;2.03;;
39950;SDS011;25629;51.444;-2.606;2022-10-31T00:24:47;16.90;;;2.00;;
39950;SDS011;25629;51.444;-2.606;2022-10-31T00:27:13;18.67;;;2.38;;
39950;SDS011;25629;51.444;-2.606;2022-10-31T00:29:38;16.40;;;2.33;;
39950;SDS011;25629;51.444;-2.606;2022-10-31T00:32:04;26.35;;;2.03;;
39950;SDS011;25629;51.444;-2.606;2022-10-31T00:34:30;15.50;;;2.45;;
39950;SDS011;25629;51.444;-2.606;2022-10-31T00:36:55;18.00;;;2.97;;
39950;SDS011;25629;51.444;-2.606;2022-10-31T00:39:21;21.17;;;3.38;;
39950;SDS011;25629;51.444;-2.606;2022-10-31T00:41:47;15.15;;;1.48;;
39950;SDS011;25629;51.444;-2.606;2022-10-31T00:44:12;12.25;;;2.45;;
39950;SDS011;25629;51.444;-2.606;2022-10-31T00:46:38;15.93;;;2.40;;
39950;SDS011;25629;51.444;-2.606;2022-10-31T00:49:03;20.95;;;1.92;;
39950;SDS011;25629;51.444;-2.606;2022-10-31T00:51:29;21.60;;;2.85;;
39950;SDS011;25629;51.444;-2.606;2022-10-31T00:53:55;15.05;;;2.28;;
39950;SDS011;25629;51.444;-2.606;2022-10-31T00:56:20;17.20;;;1.88;;
39950;SDS011;25629;51.444;-2.606;2022-10-31T00:58:46;14.88;;;1.73;;
39950;SDS011;25629;51.444;-2.606;2022-10-31T01:01:12;22.65;;;4.22;;
39950;SDS011;25629;51.444;-2.606;2022-10-31T01:03:37;15.98;;;2.20;;
39950;SDS011;25629;51.444;-2.606;2022-10-31T01:13:57;20.42;;;2.35;;
39950;SDS011;25629;51.444;-2.606;2022-10-31T01:16:24;19.93;;;1.33;;
39950;SDS011;25629;51.444;-2.606;2022-10-31T01:18:57;13.40;;;1.65;;
39950;SDS011;25629;51.444;-2.606;2022-10-31T01:21:24;19.25;;;1.75;;
39950;SDS011;25629;51.444;-2.606;2022-10-31T01:23:54;15.85;;;2.08;;
39950;SDS011;25629;51.444;-2.606;2022-10-31T01:26:22;17.40;;;2.10;;
39950;SDS011;25629;51.444;-2.606;2022-10-31T01:28:56;20.30;;;1.92;;
39950;SDS011;25629;51.444;-2.606;2022-10-31T01:31:25;16.42;;;2.08;;
39950;SDS011;25629;51.444;-2.606;2022-10-31T01:33:53;15.00;;;1.58;;
39950;SDS011;25629;51.444;-2.606;2022-10-31T01:38:55;17.58;;;2.25;;
39950;SDS011;25629;51.444;-2.606;2022-10-31T01:41:25;18.98;;;1.65;;
39950;SDS011;25629;51.444;-2.606;2022-10-31T01:43:56;18.60;;;2.83;;
39950;SDS011;25629;51.444;-2.606;2022-10-31T01:46:33;20.67;;;2.60;;
39950;SDS011;25629;51.444;-2.606;2022-10-31T01:49:04;14.30;;;2.40;;
39950;SDS011;25629;51.444;-2.606;2022-10-31T01:51:35;14.57;;;1.25;;
39950;SDS011;25629;51.444;-2.606;2022-10-31T01:54:08;13.70;;;1.70;;
39950;SDS011;25629;51.444;-2.606;2022-10-31T01:59:08;19.38;;;1.50;;
39950;SDS011;25629;51.444;-2.606;2022-10-31T02:01:36;21.20;;;1.63;;
39950;SDS011;25629;51.444;-2.606;2022-10-31T02:04:03;17.05;;;2.20;;
39950;SDS011;25629;51.444;-2.606;2022-10-31T02:09:01;15.20;;;1.50;;
39950;SDS011;25629;51.444;-2.606;2022-10-31T02:11:29;23.95;;;2.20;;
39950;SDS011;25629;51.444;-2.606;2022-10-31T02:13:55;13.15;;;1.45;;
39950;SDS011;25629;51.444;-2.606;2022-10-31T02:16:23;17.77;;;1.85;;
39950;SDS011;25629;51.444;-2.606;2022-10-31T02:18:48;13.50;;;2.50;;
39950;SDS011;25629;51.444;-2.606;2022-10-31T02:32:07;16.67;;;2.00;;
39950;SDS011;25629;51.444;-2.606;2022-10-31T02:34:50;11.65;;;1.58;;
39950;SDS011;25629;51.444;-2.606;2022-10-31T02:37:45;13.23;;;1.43;;
39950;SDS011;25629;51.444;-2.606;2022-10-31T02:40:22;13.68;;;2.25;;
39950;SDS011;25629;51.444;-2.606;2022-10-31T02:45:28;12.05;;;1.42;;
39950;SDS011;25629;51.444;-2.606;2022-10-31T02:48:22;13.18;;;1.48;;
39950;SDS011;25629;51.444;-2.606;2022-10-31T02:51:01;14.38;;;1.35;;
39950;SDS011;25629;51.444;-2.606;2022-10-31T02:53:34;11.57;;;2.15;;
39950;SDS011;25629;51.444;-2.606;2022-10-31T02:56:02;16.38;;;2.25;;
39950;SDS011;25629;51.444;-2.606;2022-10-31T02:58:39;15.23;;;1.58;;
39950;SDS011;25629;51.444;-2.606;2022-10-31T03:01:13;11.75;;;1.00;;
39950;SDS011;25629;51.444;-2.606;2022-10-31T03:17:42;17.40;;;1.58;;
39950;SDS011;25629;51.444;-2.606;2022-10-31T03:20:17;22.10;;;1.95;;
39950;SDS011;25629;51.444;-2.606;2022-10-31T03:22:49;11.85;;;2.95;;
39950;SDS011;25629;51.444;-2.606;2022-10-31T03:25:16;10.23;;;2.20;;
39950;SDS011;25629;51.444;-2.606;2022-10-31T03:27:42;20.15;;;2.33;;
39950;SDS011;25629;51.444;-2.606;2022-10-31T03:30:09;16.38;;;1.20;;
39950;SDS011;25629;51.444;-2.606;2022-10-31T03:32:36;14.85;;;1.70;;
39950;SDS011;25629;51.444;-2.606;2022-10-31T03:35:07;11.68;;;1.30;;
39950;SDS011;25629;51.444;-2.606;2022-10-31T03:37:35;13.50;;;1.33;;
39950;SDS011;25629;51.444;-2.606;2022-10-31T03:40:03;13.73;;;1.65;;
39950;SDS011;25629;51.444;-2.606;2022-10-31T03:42:33;15.63;;;2.25;;
39950;SDS011;25629;51.444;-2.606;2022-10-31T03:45:06;8.20;;;1.00;;
39950;SDS011;25629;51.444;-2.606;2022-10-31T03:47:39;19.42;;;1.63;;
39950;SDS011;25629;51.444;-2.606;2022-10-31T03:50:07;15.20;;;1.80;;
39950;SDS011;25629;51.444;-2.606;2022-10-31T03:52:37;19.00;;;1.75;;
39950;SDS011;25629;51.444;-2.606;2022-10-31T03:55:16;13.05;;;1.42;;
39950;SDS011;25629;51.444;-2.606;2022-10-31T03:58:06;14.23;;;1.58;;
39950;SDS011;25629;51.444;-2.606;2022-10-31T04:00:36;13.13;;;1.90;;
39950;SDS011;25629;51.444;-2.606;2022-10-31T04:03:09;17.63;;;1.92;;
39950;SDS011;25629;51.444;-2.606;2022-10-31T04:05:40;20.13;;;2.80;;
39950;SDS011;25629;51.444;-2.606;2022-10-31T04:08:10;15.52;;;2.15;;
39950;SDS011;25629;51.444;-2.606;2022-10-31T04:10:40;20.55;;;1.92;;
39950;SDS011;25629;51.444;-2.606;2022-10-31T04:13:14;13.05;;;1.50;;
39950;SDS011;25629;51.444;-2.606;2022-10-31T04:15:44;20.95;;;1.77;;
39950;SDS011;25629;51.444;-2.606;2022-10-31T04:18:11;17.45;;;2.95;;
39950;SDS011;25629;51.444;-2.606;2022-10-31T04:20:38;9.52;;;0.80;;
39950;SDS011;25629;51.444;-2.606;2022-10-31T04:23:08;14.57;;;1.23;;
39950;SDS011;25629;51.444;-2.606;2022-10-31T04:25:58;11.55;;;1.52;;
39950;SDS011;25629;51.444;-2.606;2022-10-31T04:28:24;13.40;;;2.55;;
39950;SDS011;25629;51.444;-2.606;2022-10-31T04:30:49;14.68;;;1.48;;
39950;SDS011;25629;51.444;-2.606;2022-10-31T04:33:15;23.73;;;2.60;;
39950;SDS011;25629;51.444;-2.606;2022-10-31T04:35:41;19.70;;;2.20;;
39950;SDS011;25629;51.444;-2.606;2022-10-31T04:38:07;16.88;;;2.25;;
39950;SDS011;25629;51.444;-2.606;2022-10-31T04:40:32;15.88;;;1.23;;
39950;SDS011;25629;51.444;-2.606;2022-10-31T04:42:58;18.48;;;1.75;;
39950;SDS011;25629;51.444;-2.606;2022-10-31T04:45:24;14.80;;;1.30;;
39950;SDS011;25629;51.444;-2.606;2022-10-31T04:47:49;21.75;;;1.52;;
39950;SDS011;25629;51.444;-2.606;2022-10-31T04:50:15;14.70;;;1.98;;
39950;SDS011;25629;51.444;-2.606;2022-10-31T04:52:42;15.05;;;1.15;;
39950;SDS011;25629;51.444;-2.606;2022-10-31T04:55:09;12.60;;;2.60;;
39950;SDS011;25629;51.444;-2.606;2022-10-31T04:57:45;14.02;;;1.50;;
39950;SDS011;25629;51.444;-2.606;2022-10-31T05:00:13;12.18;;;1.73;;
39950;SDS011;25629;51.444;-2.606;2022-10-31T05:02:50;25.17;;;1.90;;
39950;SDS011;25629;51.444;-2.606;2022-10-31T05:05:18;13.80;;;1.45;;
39950;SDS011;25629;51.444;-2.606;2022-10-31T05:07:49;19.45;;;1.88;;
39950;SDS011;25629;51.444;-2.606;2022-10-31T05:10:17;14.18;;;1.98;;
39950;SDS011;25629;51.444;-2.606;2022-10-31T05:12:51;10.13;;;0.88;;
39950;SDS011;25629;51.444;-2.606;2022-10-31T05:15:19;17.60;;;2.00;;
39950;SDS011;25629;51.444;-2.606;2022-10-31T05:17:46;15.93;;;1.95;;
39950;SDS011;25629;51.444;-2.606;2022-10-31T05:20:13;14.02;;;1.92;;
39950;SDS011;25629;51.444;-2.606;2022-10-31T05:22:49;15.55;;;1.40;;
39950;SDS011;25629;51.444;-2.606;2022-10-31T05:25:17;13.57;;;1.90;;
39950;SDS011;25629;51.444;-2.606;2022-10-31T05:27:45;9.63;;;1.00;;
39950;SDS011;25629;51.444;-2.606;2022-10-31T05:30:13;15.88;;;1.33;;
39950;SDS011;25629;51.444;-2.606;2022-10-31T05:32:41;20.77;;;1.58;;
39950;SDS011;25629;51.444;-2.606;2022-10-31T05:35:10;16.30;;;1.77;;
39950;SDS011;25629;51.444;-2.606;2022-10-31T05:37:37;13.35;;;1.65;;
39950;SDS011;25629;51.444;-2.606;2022-10-31T05:40:04;15.93;;;1.70;;
39950;SDS011;25629;51.444;-2.606;2022-10-31T05:42:32;13.50;;;1.23;;
39950;SDS011;25629;51.444;-2.606;2022-10-31T05:44:58;17.25;;;1.30;;
39950;SDS011;25629;51.444;-2.606;2022-10-31T05:47:24;12.35;;;2.45;;
39950;SDS011;25629;51.444;-2.606;2022-10-31T05:49:50;19.67;;;2.15;;
39950;SDS011;25629;51.444;-2.606;2022-10-31T05:52:16;11.95;;;1.20;;
39950;SDS011;25629;51.444;-2.606;2022-10-31T05:54:42;14.38;;;1.48;;
39950;SDS011;25629;51.444;-2.606;2022-10-31T05:57:08;12.35;;;1.30;;
39950;SDS011;25629;51.444;-2.606;2022-10-31T05:59:33;14.40;;;1.48;;
39950;SDS011;25629;51.444;-2.606;2022-10-31T06:02:02;11.15;;;1.70;;
39950;SDS011;25629;51.444;-2.606;2022-10-31T06:04:27;12.55;;;1.35;;
39950;SDS011;25629;51.444;-2.606;2022-10-31T06:06:53;23.05;;;3.75;;
39950;SDS011;25629;51.444;-2.606;2022-10-31T06:09:18;14.90;;;2.42;;
39950;SDS011;25629;51.444;-2.606;2022-10-31T06:11:44;18.85;;;2.72;;
39950;SDS011;25629;51.444;-2.606;2022-10-31T06:14:10;17.85;;;2.60;;
39950;SDS011;25629;51.444;-2.606;2022-10-31T06:16:36;14.10;;;1.88;;
39950;SDS011;25629;51.444;-2.606;2022-10-31T06:19:01;21.23;;;1.83;;
39950;SDS011;25629;51.444;-2.606;2022-10-31T06:21:27;19.35;;;1.98;;
39950;SDS011;25629;51.444;-2.606;2022-10-31T06:23:53;11.88;;;2.33;;
39950;SDS011;25629;51.444;-2.606;2022-10-31T06:26:18;11.38;;;1.50;;
39950;SDS011;25629;51.444;-2.606;2022-10-31T06:28:44;16.63;;;2.17;;
39950;SDS011;25629;51.444;-2.606;2022-10-31T06:31:10;16.75;;;2.35;;
39950;SDS011;25629;51.444;-2.606;2022-10-31T06:33:35;16.60;;;2.42;;
39950;SDS011;25629;51.444;-2.606;2022-10-31T06:36:01;12.48;;;1.73;;
39950;SDS011;25629;51.444;-2.606;2022-10-31T06:38:27;18.90;;;1.83;;
39950;SDS011;25629;51.444;-2.606;2022-10-31T06:40:53;10.90;;;1.42;;
39950;SDS011;25629;51.444;-2.606;2022-10-31T06:45:45;13.60;;;1.98;;
39950;SDS011;25629;51.444;-2.606;2022-10-31T06:48:11;15.98;;;1.10;;
39950;SDS011;25629;51.444;-2.606;2022-10-31T06:50:37;14.85;;;2.03;;
39950;SDS011;25629;51.444;-2.606;2022-10-31T06:53:02;12.35;;;1.98;;
39950;SDS011;25629;51.444;-2.606;2022-10-31T06:55:28;15.25;;;1.60;;
39950;SDS011;25629;51.444;-2.606;2022-10-31T06:57:54;17.17;;;2.40;;
39950;SDS011;25629;51.444;-2.606;2022-10-31T07:00:21;11.15;;;1.02;;
39950;SDS011;25629;51.444;-2.606;2022-10-31T07:02:55;15.73;;;1.90;;
39950;SDS011;25629;51.444;-2.606;2022-10-31T07:05:24;15.30;;;1.67;;
39950;SDS011;25629;51.444;-2.606;2022-10-31T07:07:52;15.25;;;2.15;;
39950;SDS011;25629;51.444;-2.606;2022-10-31T07:10:22;17.58;;;1.50;;
39950;SDS011;25629;51.444;-2.606;2022-10-31T07:13:01;19.73;;;2.28;;
39950;SDS011;25629;51.444;-2.606;2022-10-31T07:15:34;17.50;;;1.90;;
39950;SDS011;25629;51.444;-2.606;2022-10-31T07:18:02;14.05;;;2.85;;
39950;SDS011;25629;51.444;-2.606;2022-10-31T07:20:31;17.50;;;1.75;;
39950;SDS011;25629;51.444;-2.606;2022-10-31T07:22:57;18.77;;;2.00;;
39950;SDS011;25629;51.444;-2.606;2022-10-31T07:25:23;11.52;;;1.65;;
39950;SDS011;25629;51.444;-2.606;2022-10-31T07:27:49;19.50;;;1.60;;
39950;SDS011;25629;51.444;-2.606;2022-10-31T07:30:15;18.83;;;2.15;;
39950;SDS011;25629;51.444;-2.606;2022-10-31T07:32:49;15.88;;;1.73;;
39950;SDS011;25629;51.444;-2.606;2022-10-31T07:35:16;13.43;;;1.88;;
39950;SDS011;25629;51.444;-2.606;2022-10-31T07:37:44;15.13;;;2.17;;
39950;SDS011;25629;51.444;-2.606;2022-10-31T07:40:09;16.88;;;2.67;;
39950;SDS011;25629;51.444;-2.606;2022-10-31T07:45:06;23.75;;;2.28;;
39950;SDS011;25629;51.444;-2.606;2022-10-31T07:47:40;12.98;;;1.30;;
39950;SDS011;25629;51.444;-2.606;2022-10-31T07:50:17;12.93;;;1.55;;
39950;SDS011;25629;51.444;-2.606;2022-10-31T07:52:48;11.80;;;2.00;;
39950;SDS011;25629;51.444;-2.606;2022-10-31T07:55:26;9.85;;;1.40;;
39950;SDS011;25629;51.444;-2.606;2022-10-31T07:57:56;11.40;;;1.70;;
39950;SDS011;25629;51.444;-2.606;2022-10-31T08:00:23;18.70;;;2.13;;
39950;SDS011;25629;51.444;-2.606;2022-10-31T08:02:56;18.67;;;2.20;;
39950;SDS011;25629;51.444;-2.606;2022-10-31T08:05:25;11.57;;;1.55;;
39950;SDS011;25629;51.444;-2.606;2022-10-31T08:07:51;19.50;;;1.48;;
39950;SDS011;25629;51.444;-2.606;2022-10-31T08:10:17;15.93;;;2.10;;
39950;SDS011;25629;51.444;-2.606;2022-10-31T08:12:43;11.20;;;0.98;;
39950;SDS011;25629;51.444;-2.606;2022-10-31T08:15:08;11.15;;;1.45;;
39950;SDS011;25629;51.444;-2.606;2022-10-31T08:17:35;7.97;;;1.10;;
39950;SDS011;25629;51.444;-2.606;2022-10-31T08:20:02;13.77;;;1.88;;
39950;SDS011;25629;51.444;-2.606;2022-10-31T08:22:28;15.43;;;1.63;;
39950;SDS011;25629;51.444;-2.606;2022-10-31T08:24:54;14.55;;;1.00;;
39950;SDS011;25629;51.444;-2.606;2022-10-31T08:27:19;13.73;;;2.33;;
39950;SDS011;25629;51.444;-2.606;2022-10-31T08:29:45;12.05;;;1.33;;
39950;SDS011;25629;51.444;-2.606;2022-10-31T08:32:11;16.05;;;1.48;;
39950;SDS011;25629;51.444;-2.606;2022-10-31T08:34:36;11.32;;;2.08;;
39950;SDS011;25629;51.444;-2.606;2022-10-31T08:37:02;20.90;;;1.70;;
39950;SDS011;25629;51.444;-2.606;2022-10-31T08:39:28;12.25;;;1.42;;
39950;SDS011;25629;51.444;-2.606;2022-10-31T08:41:53;14.02;;;1.50;;
39950;SDS011;25629;51.444;-2.606;2022-10-31T08:44:19;10.80;;;1.58;;
39950;SDS011;25629;51.444;-2.606;2022-10-31T08:46:44;14.00;;;1.20;;
39950;SDS011;25629;51.444;-2.606;2022-10-31T08:49:10;13.73;;;0.93;;
39950;SDS011;25629;51.444;-2.606;2022-10-31T08:51:36;13.45;;;1.65;;
39950;SDS011;25629;51.444;-2.606;2022-10-31T08:54:02;15.15;;;1.85;;
39950;SDS011;25629;51.444;-2.606;2022-10-31T08:56:27;15.57;;;1.65;;
39950;SDS011;25629;51.444;-2.606;2022-10-31T08:58:53;10.65;;;1.50;;
39950;SDS011;25629;51.444;-2.606;2022-10-31T09:01:19;13.02;;;2.40;;
39950;SDS011;25629;51.444;-2.606;2022-10-31T09:03:44;12.23;;;1.40;;
39950;SDS011;25629;51.444;-2.606;2022-10-31T09:06:10;16.63;;;1.75;;
39950;SDS011;25629;51.444;-2.606;2022-10-31T09:08:36;16.73;;;2.15;;
39950;SDS011;25629;51.444;-2.606;2022-10-31T09:11:02;16.65;;;1.25;;
39950;SDS011;25629;51.444;-2.606;2022-10-31T09:13:28;18.67;;;2.10;;
39950;SDS011;25629;51.444;-2.606;2022-10-31T09:15:55;12.68;;;2.08;;
39950;SDS011;25629;51.444;-2.606;2022-10-31T09:18:21;20.13;;;2.45;;
39950;SDS011;25629;51.444;-2.606;2022-10-31T09:20:48;11.85;;;2.17;;
39950;SDS011;25629;51.444;-2.606;2022-10-31T09:25:42;12.55;;;1.40;;
39950;SDS011;25629;51.444;-2.606;2022-10-31T09:28:11;12.57;;;1.38;;
39950;SDS011;25629;51.444;-2.606;2022-10-31T09:30:38;11.10;;;1.13;;
39950;SDS011;25629;51.444;-2.606;2022-10-31T09:35:31;11.10;;;1.73;;
39950;SDS011;25629;51.444;-2.606;2022-10-31T09:37:58;14.27;;;1.48;;
39950;SDS011;25629;51.444;-2.606;2022-10-31T09:40:47;12.00;;;1.10;;
39950;SDS011;25629;51.444;-2.606;2022-10-31T09:46:07;11.80;;;1.77;;
39950;SDS011;25629;51.444;-2.606;2022-10-31T09:54:04;10.80;;;1.95;;
39950;SDS011;25629;51.444;-2.606;2022-10-31T09:56:31;16.52;;;1.70;;
39950;SDS011;25629;51.444;-2.606;2022-10-31T09:58:58;15.95;;;2.97;;
39950;SDS011;25629;51.444;-2.606;2022-10-31T10:01:28;13.00;;;1.52;;
39950;SDS011;25629;51.444;-2.606;2022-10-31T10:06:55;13.77;;;1.70;;
39950;SDS011;25629;51.444;-2.606;2022-10-31T10:09:22;18.20;;;1.95;;
39950;SDS011;25629;51.444;-2.606;2022-10-31T10:17:34;12.75;;;1.20;;
39950;SDS011;25629;51.444;-2.606;2022-10-31T10:28:16;11.65;;;1.15;;
39950;SDS011;25629;51.444;-2.606;2022-10-31T10:31:04;11.13;;;1.95;;
39950;SDS011;25629;51.444;-2.606;2022-10-31T10:33:35;14.60;;;1.15;;
39950;SDS011;25629;51.444;-2.606;2022-10-31T10:36:10;8.70;;;1.42;;
39950;SDS011;25629;51.444;-2.606;2022-10-31T10:41:19;7.57;;;0.85;;
39950;SDS011;25629;51.444;-2.606;2022-10-31T10:43:49;8.82;;;1.08;;
39950;SDS011;25629;51.444;-2.606;2022-10-31T10:49:40;9.30;;;1.15;;
39950;SDS011;25629;51.444;-2.606;2022-10-31T10:52:25;10.68;;;1.73;;
39950;SDS011;25629;51.444;-2.606;2022-10-31T10:55:03;7.82;;;0.90;;
39950;SDS011;25629;51.444;-2.606;2022-10-31T11:00:27;3.55;;;0.70;;
39950;SDS011;25629;51.444;-2.606;2022-10-31T11:03:06;12.85;;;1.30;;
39950;SDS011;25629;51.444;-2.606;2022-10-31T11:05:41;9.93;;;1.85;;
39950;SDS011;25629;51.444;-2.606;2022-10-31T11:08:26;8.95;;;1.00;;
39950;SDS011;25629;51.444;-2.606;2022-10-31T11:11:36;10.13;;;1.10;;
39950;SDS011;25629;51.444;-2.606;2022-10-31T11:13:43;7.55;;;1.35;;
39950;SDS011;25629;51.444;-2.606;2022-10-31T11:16:14;10.98;;;1.00;;
39950;SDS011;25629;51.444;-2.606;2022-10-31T11:21:44;8.55;;;1.67;;
39950;SDS011;25629;51.444;-2.606;2022-10-31T11:24:13;10.00;;;1.00;;
39950;SDS011;25629;51.444;-2.606;2022-10-31T11:26:40;8.07;;;0.70;;
39950;SDS011;25629;51.444;-2.606;2022-10-31T11:29:12;10.18;;;0.90;;
39950;SDS011;25629;51.444;-2.606;2022-10-31T11:31:40;9.85;;;1.10;;
39950;SDS011;25629;51.444;-2.606;2022-10-31T11:34:11;11.02;;;0.90;;
39950;SDS011;25629;51.444;-2.606;2022-10-31T11:37:08;6.70;;;1.00;;
39950;SDS011;25629;51.444;-2.606;2022-10-31T11:39:45;12.02;;;1.77;;
39950;SDS011;25629;51.444;-2.606;2022-10-31T11:42:18;8.63;;;0.88;;
39950;SDS011;25629;51.444;-2.606;2022-10-31T11:44:51;9.30;;;1.15;;
39950;SDS011;25629;51.444;-2.606;2022-10-31T11:47:23;8.48;;;0.82;;
39950;SDS011;25629;51.444;-2.606;2022-10-31T11:49:53;4.90;;;1.15;;
39950;SDS011;25629;51.444;-2.606;2022-10-31T11:52:24;7.13;;;0.70;;
39950;SDS011;25629;51.444;-2.606;2022-10-31T11:54:57;7.13;;;1.17;;
39950;SDS011;25629;51.444;-2.606;2022-10-31T11:57:27;5.90;;;1.13;;
39950;SDS011;25629;51.444;-2.606;2022-10-31T12:00:01;6.90;;;0.93;;
39950;SDS011;25629;51.444;-2.606;2022-10-31T12:02:29;5.88;;;0.80;;
39950;SDS011;25629;51.444;-2.606;2022-10-31T12:05:06;3.05;;;0.70;;
39950;SDS011;25629;51.444;-2.606;2022-10-31T12:07:43;7.85;;;1.10;;
39950;SDS011;25629;51.444;-2.606;2022-10-31T12:10:10;8.50;;;1.40;;
39950;SDS011;25629;51.444;-2.606;2022-10-31T12:15:26;6.57;;;0.73;;
39950;SDS011;25629;51.444;-2.606;2022-10-31T12:18:01;5.22;;;0.60;;
39950;SDS011;25629;51.444;-2.606;2022-10-31T12:26:30;2.92;;;0.93;;
39950;SDS011;25629;51.444;-2.606;2022-10-31T12:29:11;7.45;;;1.10;;
39950;SDS011;25629;51.444;-2.606;2022-10-31T12:32:13;4.72;;;0.98;;
39950;SDS011;25629;51.444;-2.606;2022-10-31T12:34:58;4.53;;;0.60;;
39950;SDS011;25629;51.444;-2.606;2022-10-31T12:48:27;8.48;;;0.68;;
39950;SDS011;25629;51.444;-2.606;2022-10-31T12:54:31;3.58;;;0.60;;
39950;SDS011;25629;51.444;-2.606;2022-10-31T12:57:13;4.03;;;0.65;;
39950;SDS011;25629;51.444;-2.606;2022-10-31T12:59:47;6.22;;;0.60;;
39950;SDS011;25629;51.444;-2.606;2022-10-31T13:02:20;4.97;;;0.40;;
39950;SDS011;25629;51.444;-2.606;2022-10-31T13:08:04;2.65;;;0.65;;
39950;SDS011;25629;51.444;-2.606;2022-10-31T13:13:58;5.82;;;0.90;;
39950;SDS011;25629;51.444;-2.606;2022-10-31T13:16:35;4.13;;;0.40;;
39950;SDS011;25629;51.444;-2.606;2022-10-31T13:24:40;3.83;;;0.88;;
39950;SDS011;25629;51.444;-2.606;2022-10-31T13:30:01;2.55;;;0.40;;
39950;SDS011;25629;51.444;-2.606;2022-10-31T13:35:45;3.90;;;0.60;;
39950;SDS011;25629;51.444;-2.606;2022-10-31T13:38:16;4.25;;;0.40;;
39950;SDS011;25629;51.444;-2.606;2022-10-31T13:46:51;6.13;;;0.60;;
39950;SDS011;25629;51.444;-2.606;2022-10-31T13:54:40;2.83;;;0.60;;
39950;SDS011;25629;51.444;-2.606;2022-10-31T14:02:47;5.03;;;0.80;;
39950;SDS011;25629;51.444;-2.606;2022-10-31T14:05:25;4.10;;;0.50;;
39950;SDS011;25629;51.444;-2.606;2022-10-31T14:07:52;6.20;;;0.50;;
39950;SDS011;25629;51.444;-2.606;2022-10-31T14:13:20;2.75;;;0.40;;
39950;SDS011;25629;51.444;-2.606;2022-10-31T14:18:46;2.08;;;0.30;;
39950;SDS011;25629;51.444;-2.606;2022-10-31T14:23:53;8.10;;;0.93;;
39950;SDS011;25629;51.444;-2.606;2022-10-31T14:28:52;4.03;;;0.43;;
39950;SDS011;25629;51.444;-2.606;2022-10-31T14:31:34;4.60;;;0.60;;
39950;SDS011;25629;51.444;-2.606;2022-10-31T14:50:54;3.20;;;0.40;;
39950;SDS011;25629;51.444;-2.606;2022-10-31T14:53:26;2.83;;;0.40;;
39950;SDS011;25629;51.444;-2.606;2022-10-31T14:55:58;1.35;;;0.30;;
39950;SDS011;25629;51.444;-2.606;2022-10-31T14:58:40;7.53;;;0.60;;
39950;SDS011;25629;51.444;-2.606;2022-10-31T15:03:49;9.63;;;0.98;;
39950;SDS011;25629;51.444;-2.606;2022-10-31T15:06:17;3.58;;;0.60;;
39950;SDS011;25629;51.444;-2.606;2022-10-31T15:08:46;7.05;;;0.60;;
39950;SDS011;25629;51.444;-2.606;2022-10-31T15:11:18;2.88;;;0.50;;
39950;SDS011;25629;51.444;-2.606;2022-10-31T15:14:05;9.00;;;1.60;;
39950;SDS011;25629;51.444;-2.606;2022-10-31T15:16:46;2.30;;;0.40;;
39950;SDS011;25629;51.444;-2.606;2022-10-31T15:19:12;3.80;;;0.50;;
39950;SDS011;25629;51.444;-2.606;2022-10-31T15:21:44;1.90;;;0.55;;
39950;SDS011;25629;51.444;-2.606;2022-10-31T15:24:11;7.38;;;0.80;;
39950;SDS011;25629;51.444;-2.606;2022-10-31T15:26:44;4.40;;;0.77;;
39950;SDS011;25629;51.444;-2.606;2022-10-31T15:29:13;3.22;;;0.70;;
39950;SDS011;25629;51.444;-2.606;2022-10-31T15:31:53;4.82;;;0.93;;
39950;SDS011;25629;51.444;-2.606;2022-10-31T15:34:20;1.95;;;0.63;;
39950;SDS011;25629;51.444;-2.606;2022-10-31T15:36:52;4.75;;;0.63;;
39950;SDS011;25629;51.444;-2.606;2022-10-31T15:39:18;4.80;;;0.93;;
39950;SDS011;25629;51.444;-2.606;2022-10-31T15:44:22;6.75;;;1.42;;
39950;SDS011;25629;51.444;-2.606;2022-10-31T15:46:58;5.20;;;1.45;;
39950;SDS011;25629;51.444;-2.606;2022-10-31T15:57:38;5.10;;;0.93;;
39950;SDS011;25629;51.444;-2.606;2022-10-31T16:00:06;5.75;;;1.10;;
39950;SDS011;25629;51.444;-2.606;2022-10-31T16:02:46;4.38;;;1.20;;
39950;SDS011;25629;51.444;-2.606;2022-10-31T16:05:15;4.82;;;0.90;;
39950;SDS011;25629;51.444;-2.606;2022-10-31T16:07:49;6.03;;;0.88;;
39950;SDS011;25629;51.444;-2.606;2022-10-31T16:10:23;5.60;;;0.90;;
39950;SDS011;25629;51.444;-2.606;2022-10-31T16:12:50;5.28;;;0.95;;
39950;SDS011;25629;51.444;-2.606;2022-10-31T16:15:17;6.20;;;1.10;;
39950;SDS011;25629;51.444;-2.606;2022-10-31T16:17:46;6.68;;;1.42;;
39950;SDS011;25629;51.444;-2.606;2022-10-31T16:23:17;5.93;;;1.17;;
39950;SDS011;25629;51.444;-2.606;2022-10-31T16:25:44;7.82;;;1.20;;
39950;SDS011;25629;51.444;-2.606;2022-10-31T16:28:17;7.35;;;2.05;;
39950;SDS011;25629;51.444;-2.606;2022-10-31T16:30:49;5.88;;;1.23;;
39950;SDS011;25629;51.444;-2.606;2022-10-31T16:38:56;5.55;;;1.05;;
39950;SDS011;25629;51.444;-2.606;2022-10-31T16:41:25;6.80;;;1.20;;
39950;SDS011;25629;51.444;-2.606;2022-10-31T16:46:24;5.47;;;0.90;;
39950;SDS011;25629;51.444;-2.606;2022-10-31T16:48:51;6.72;;;1.58;;
39950;SDS011;25629;51.444;-2.606;2022-10-31T16:51:17;5.13;;;1.10;;
39950;SDS011;25629;51.444;-2.606;2022-10-31T16:53:43;7.03;;;1.13;;
39950;SDS011;25629;51.444;-2.606;2022-10-31T16:56:27;4.20;;;0.90;;
39950;SDS011;25629;51.444;-2.606;2022-10-31T16:58:54;2.88;;;0.80;;
39950;SDS011;25629;51.444;-2.606;2022-10-31T17:03:46;3.38;;;1.02;;
39950;SDS011;25629;51.444;-2.606;2022-10-31T17:06:12;4.35;;;0.88;;
39950;SDS011;25629;51.444;-2.606;2022-10-31T17:08:38;5.05;;;1.10;;
39950;SDS011;25629;51.444;-2.606;2022-10-31T17:11:04;4.10;;;0.90;;
39950;SDS011;25629;51.444;-2.606;2022-10-31T17:13:32;5.18;;;0.80;;
39950;SDS011;25629;51.444;-2.606;2022-10-31T17:16:00;6.57;;;2.28;;
39950;SDS011;25629;51.444;-2.606;2022-10-31T17:18:27;4.25;;;0.90;;
39950;SDS011;25629;51.444;-2.606;2022-10-31T17:21:13;2.33;;;0.70;;
39950;SDS011;25629;51.444;-2.606;2022-10-31T17:23:45;5.88;;;0.90;;
39950;SDS011;25629;51.444;-2.606;2022-10-31T17:26:10;1.63;;;0.80;;
39950;SDS011;25629;51.444;-2.606;2022-10-31T17:28:36;3.40;;;0.95;;
39950;SDS011;25629;51.444;-2.606;2022-10-31T17:31:04;6.35;;;0.95;;
39950;SDS011;25629;51.444;-2.606;2022-10-31T17:33:30;3.67;;;1.00;;
39950;SDS011;25629;51.444;-2.606;2022-10-31T17:35:56;3.58;;;0.90;;
39950;SDS011;25629;51.444;-2.606;2022-10-31T17:38:26;3.88;;;1.27;;
39950;SDS011;25629;51.444;-2.606;2022-10-31T17:40:52;6.10;;;1.83;;
39950;SDS011;25629;51.444;-2.606;2022-10-31T17:43:17;4.53;;;1.45;;
39950;SDS011;25629;51.444;-2.606;2022-10-31T17:45:50;7.60;;;0.93;;
39950;SDS011;25629;51.444;-2.606;2022-10-31T17:48:16;2.08;;;1.00;;
39950;SDS011;25629;51.444;-2.606;2022-10-31T17:50:42;5.82;;;1.30;;
39950;SDS011;25629;51.444;-2.606;2022-10-31T17:53:07;7.78;;;1.48;;
39950;SDS011;25629;51.444;-2.606;2022-10-31T17:55:33;5.53;;;1.40;;
39950;SDS011;25629;51.444;-2.606;2022-10-31T17:57:59;3.08;;;1.30;;
39950;SDS011;25629;51.444;-2.606;2022-10-31T18:00:24;6.85;;;1.25;;
39950;SDS011;25629;51.444;-2.606;2022-10-31T18:05:16;9.88;;;1.38;;
39950;SDS011;25629;51.444;-2.606;2022-10-31T18:07:42;6.63;;;1.60;;